sensor_id;sensor_type;location;lat;lon;timestamp;pressure;altitude;pressure_sealevel;temperature;humidity
62789;BME280;66401;42.016;21.454;2023-04-05T00:00:25;98023.84;;;4.37;70.19
62789;BME280;66401;42.016;21.454;2023-04-05T00:02:50;98025.44;;;4.38;70.34
62789;BME280;66401;42.016;21.454;2023-04-05T00:05:17;98022.69;;;4.39;69.18
62789;BME280;66401;42.016;21.454;2023-04-05T00:07:57;98029.88;;;4.11;71.74
62789;BME280;66401;42.016;21.454;2023-04-05T00:10:25;98022.38;;;4.42;69.34
62789;BME280;66401;42.016;21.454;2023-04-05T00:12:50;98027.69;;;4.32;69.74
62789;BME280;66401;42.016;21.454;2023-04-05T00:15:16;98019.91;;;4.08;72.12
62789;BME280;66401;42.016;21.454;2023-04-05T00:17:43;98029.19;;;4.01;72.00
62789;BME280;66401;42.016;21.454;2023-04-05T00:20:09;98027.19;;;4.29;71.04
62789;BME280;66401;42.016;21.454;2023-04-05T00:22:35;98021.56;;;4.42;70.12
62789;BME280;66401;42.016;21.454;2023-04-05T00:25:03;98022.09;;;4.45;69.13
62789;BME280;66401;42.016;21.454;2023-04-05T00:27:28;98017.97;;;4.10;70.39
62789;BME280;66401;42.016;21.454;2023-04-05T00:29:54;98027.25;;;3.95;70.85
62789;BME280;66401;42.016;21.454;2023-04-05T00:32:20;98029.94;;;4.27;69.12
62789;BME280;66401;42.016;21.454;2023-04-05T00:34:45;98033.19;;;4.46;68.25
62789;BME280;66401;42.016;21.454;2023-04-05T00:37:11;98031.75;;;4.51;67.83
62789;BME280;66401;42.016;21.454;2023-04-05T00:39:40;98033.50;;;4.43;67.75
62789;BME280;66401;42.016;21.454;2023-04-05T00:42:06;98029.97;;;4.52;66.31
62789;BME280;66401;42.016;21.454;2023-04-05T00:44:32;98021.91;;;4.39;67.28
62789;BME280;66401;42.016;21.454;2023-04-05T00:47:04;98026.13;;;4.64;67.74
62789;BME280;66401;42.016;21.454;2023-04-05T00:49:34;98036.06;;;4.26;69.71
62789;BME280;66401;42.016;21.454;2023-04-05T00:52:01;98033.44;;;4.10;70.48
62789;BME280;66401;42.016;21.454;2023-04-05T00:54:28;98025.63;;;3.94;70.17
62789;BME280;66401;42.016;21.454;2023-04-05T00:56:57;98024.38;;;3.98;70.29
62789;BME280;66401;42.016;21.454;2023-04-05T00:59:24;98031.88;;;4.25;70.54
62789;BME280;66401;42.016;21.454;2023-04-05T01:02:12;98030.91;;;4.43;68.66
62789;BME280;66401;42.016;21.454;2023-04-05T01:04:41;98034.19;;;4.61;67.99
62789;BME280;66401;42.016;21.454;2023-04-05T01:07:37;98034.16;;;4.53;67.08
62789;BME280;66401;42.016;21.454;2023-04-05T01:10:08;98033.19;;;4.46;67.86
62789;BME280;66401;42.016;21.454;2023-04-05T01:12:36;98043.53;;;4.54;66.44
62789;BME280;66401;42.016;21.454;2023-04-05T01:15:02;98041.59;;;4.48;67.66
62789;BME280;66401;42.016;21.454;2023-04-05T01:17:29;98047.00;;;4.28;67.77
62789;BME280;66401;42.016;21.454;2023-04-05T01:20:03;98029.81;;;4.45;68.29
62789;BME280;66401;42.016;21.454;2023-04-05T01:23:11;98044.03;;;4.66;66.70
62789;BME280;66401;42.016;21.454;2023-04-05T01:28:41;98043.50;;;4.38;68.02
62789;BME280;66401;42.016;21.454;2023-04-05T01:31:22;98052.41;;;4.59;67.20
62789;BME280;66401;42.016;21.454;2023-04-05T01:38:52;98042.25;;;4.58;67.00
62789;BME280;66401;42.016;21.454;2023-04-05T01:41:20;98048.06;;;4.68;68.77
62789;BME280;66401;42.016;21.454;2023-04-05T01:43:45;98031.25;;;4.40;68.17
62789;BME280;66401;42.016;21.454;2023-04-05T01:46:11;98036.69;;;4.28;68.09
62789;BME280;66401;42.016;21.454;2023-04-05T01:48:36;98038.06;;;4.57;68.11
62789;BME280;66401;42.016;21.454;2023-04-05T01:51:02;98043.38;;;4.55;67.58
62789;BME280;66401;42.016;21.454;2023-04-05T01:53:27;98040.94;;;4.62;67.29
62789;BME280;66401;42.016;21.454;2023-04-05T01:55:53;98037.75;;;4.68;67.32
62789;BME280;66401;42.016;21.454;2023-04-05T01:58:18;98040.34;;;4.76;66.81
62789;BME280;66401;42.016;21.454;2023-04-05T02:00:44;98023.69;;;4.46;68.76
62789;BME280;66401;42.016;21.454;2023-04-05T02:03:09;98029.28;;;4.34;68.16
62789;BME280;66401;42.016;21.454;2023-04-05T02:05:35;98029.13;;;4.27;69.76
62789;BME280;66401;42.016;21.454;2023-04-05T02:08:00;98034.59;;;4.24;69.21
62789;BME280;66401;42.016;21.454;2023-04-05T02:10:26;98033.53;;;4.51;68.34
62789;BME280;66401;42.016;21.454;2023-04-05T02:12:51;98033.50;;;4.43;69.66
62789;BME280;66401;42.016;21.454;2023-04-05T02:15:17;98032.03;;;4.32;70.26
62789;BME280;66401;42.016;21.454;2023-04-05T02:17:42;98031.72;;;4.35;70.64
62789;BME280;66401;42.016;21.454;2023-04-05T02:20:10;98029.28;;;4.34;69.21
62789;BME280;66401;42.016;21.454;2023-04-05T02:22:37;98037.03;;;4.25;70.67
62789;BME280;66401;42.016;21.454;2023-04-05T02:25:05;98002.84;;;4.23;69.12
62789;BME280;66401;42.016;21.454;2023-04-05T02:27:31;98037.38;;;4.39;68.84
62789;BME280;66401;42.016;21.454;2023-04-05T02:29:57;98029.97;;;4.52;69.36
62789;BME280;66401;42.016;21.454;2023-04-05T02:32:24;98037.56;;;4.45;69.52
62789;BME280;66401;42.016;21.454;2023-04-05T02:34:49;98020.28;;;4.38;69.66
62789;BME280;66401;42.016;21.454;2023-04-05T02:37:17;98030.47;;;4.47;69.15
62789;BME280;66401;42.016;21.454;2023-04-05T02:39:42;98031.94;;;4.58;68.98
62789;BME280;66401;42.016;21.454;2023-04-05T02:42:08;98035.28;;;4.50;68.42
62789;BME280;66401;42.016;21.454;2023-04-05T02:44:33;98038.66;;;4.43;69.67
62789;BME280;66401;42.016;21.454;2023-04-05T02:46:59;98040.59;;;4.41;69.06
62789;BME280;66401;42.016;21.454;2023-04-05T02:49:25;98039.34;;;4.61;68.94
62789;BME280;66401;42.016;21.454;2023-04-05T02:51:50;98042.56;;;4.71;66.73
62789;BME280;66401;42.016;21.454;2023-04-05T02:54:16;98039.16;;;4.38;69.01
62789;BME280;66401;42.016;21.454;2023-04-05T02:56:41;98035.09;;;4.27;70.83
62789;BME280;66401;42.016;21.454;2023-04-05T02:59:07;98033.31;;;4.28;69.92
62789;BME280;66401;42.016;21.454;2023-04-05T03:01:32;98039.81;;;4.56;68.80
62789;BME280;66401;42.016;21.454;2023-04-05T03:04:01;98038.06;;;4.65;67.74
62789;BME280;66401;42.016;21.454;2023-04-05T03:06:26;98040.13;;;4.62;67.35
62789;BME280;66401;42.016;21.454;2023-04-05T03:08:52;98040.97;;;4.54;66.89
62789;BME280;66401;42.016;21.454;2023-04-05T03:11:18;98040.44;;;4.50;67.92
62789;BME280;66401;42.016;21.454;2023-04-05T03:13:43;98034.16;;;4.53;67.80
62789;BME280;66401;42.016;21.454;2023-04-05T03:16:09;98039.66;;;4.50;66.56
62789;BME280;66401;42.016;21.454;2023-04-05T03:18:35;98033.84;;;4.48;67.32
62789;BME280;66401;42.016;21.454;2023-04-05T03:21:00;98034.81;;;4.47;67.59
62789;BME280;66401;42.016;21.454;2023-04-05T03:23:29;98036.06;;;4.43;69.27
62789;BME280;66401;42.016;21.454;2023-04-05T03:25:59;98040.28;;;4.52;68.71
62789;BME280;66401;42.016;21.454;2023-04-05T03:28:25;98043.00;;;4.26;69.87
62789;BME280;66401;42.016;21.454;2023-04-05T03:30:51;98043.66;;;4.36;68.77
62789;BME280;66401;42.016;21.454;2023-04-05T03:33:17;98039.63;;;4.42;68.11
62789;BME280;66401;42.016;21.454;2023-04-05T03:35:43;98048.69;;;4.46;68.85
62789;BME280;66401;42.016;21.454;2023-04-05T03:38:08;98036.44;;;4.48;68.68
62789;BME280;66401;42.016;21.454;2023-04-05T03:40:34;98015.53;;;4.09;69.42
62789;BME280;66401;42.016;21.454;2023-04-05T03:42:59;98051.91;;;4.48;68.13
62789;BME280;66401;42.016;21.454;2023-04-05T03:45:25;98049.16;;;4.49;67.86
62789;BME280;66401;42.016;21.454;2023-04-05T03:47:51;98051.91;;;4.48;67.37
62789;BME280;66401;42.016;21.454;2023-04-05T03:50:17;98058.34;;;4.60;66.82
62789;BME280;66401;42.016;21.454;2023-04-05T03:52:43;98043.34;;;4.39;68.77
62789;BME280;66401;42.016;21.454;2023-04-05T03:55:09;98052.50;;;4.25;69.57
62789;BME280;66401;42.016;21.454;2023-04-05T03:57:36;98042.00;;;4.19;68.94
62789;BME280;66401;42.016;21.454;2023-04-05T04:00:02;98060.44;;;4.48;68.34
62789;BME280;66401;42.016;21.454;2023-04-05T04:02:45;98071.09;;;4.45;68.98
62789;BME280;66401;42.016;21.454;2023-04-05T04:05:11;98070.91;;;4.47;68.16
62789;BME280;66401;42.016;21.454;2023-04-05T04:07:37;98070.78;;;4.56;67.98
62789;BME280;66401;42.016;21.454;2023-04-05T04:10:06;98070.94;;;4.55;67.58
62789;BME280;66401;42.016;21.454;2023-04-05T04:12:32;98075.13;;;4.56;68.80
62789;BME280;66401;42.016;21.454;2023-04-05T04:14:57;98074.09;;;4.32;68.81
62789;BME280;66401;42.016;21.454;2023-04-05T04:17:40;98040.25;;;4.27;68.56
62789;BME280;66401;42.016;21.454;2023-04-05T04:20:06;98075.78;;;4.58;67.83
62789;BME280;66401;42.016;21.454;2023-04-05T04:22:35;98064.00;;;4.55;66.73
62789;BME280;66401;42.016;21.454;2023-04-05T04:25:07;98072.69;;;4.63;67.02
62789;BME280;66401;42.016;21.454;2023-04-05T04:27:40;98087.38;;;4.54;66.91
62789;BME280;66401;42.016;21.454;2023-04-05T04:30:12;98079.81;;;4.60;67.81
62789;BME280;66401;42.016;21.454;2023-04-05T04:32:38;98086.88;;;4.50;68.67
62789;BME280;66401;42.016;21.454;2023-04-05T04:35:19;98086.75;;;4.68;67.83
62789;BME280;66401;42.016;21.454;2023-04-05T04:37:59;98088.69;;;4.66;65.60
62789;BME280;66401;42.016;21.454;2023-04-05T04:40:31;98092.88;;;4.67;66.64
62789;BME280;66401;42.016;21.454;2023-04-05T04:43:04;98089.00;;;4.63;67.97
62789;BME280;66401;42.016;21.454;2023-04-05T04:45:29;98095.75;;;4.48;68.13
62789;BME280;66401;42.016;21.454;2023-04-05T04:47:59;98094.16;;;4.63;67.80
62789;BME280;66401;42.016;21.454;2023-04-05T04:50:26;98094.59;;;4.00;69.72
62789;BME280;66401;42.016;21.454;2023-04-05T04:52:51;98098.34;;;4.06;70.52
62789;BME280;66401;42.016;21.454;2023-04-05T04:55:18;98084.69;;;3.79;70.11
62789;BME280;66401;42.016;21.454;2023-04-05T04:57:50;98086.13;;;4.16;69.36
62789;BME280;66401;42.016;21.454;2023-04-05T05:00:16;98087.00;;;4.41;67.53
62789;BME280;66401;42.016;21.454;2023-04-05T05:02:42;98087.53;;;4.44;68.65
62789;BME280;66401;42.016;21.454;2023-04-05T05:05:08;98088.84;;;4.65;68.31
62789;BME280;66401;42.016;21.454;2023-04-05T05:07:35;98088.53;;;4.68;68.67
62789;BME280;66401;42.016;21.454;2023-04-05T05:10:01;98088.59;;;4.25;70.99
62789;BME280;66401;42.016;21.454;2023-04-05T05:12:27;98088.94;;;4.39;70.61
62789;BME280;66401;42.016;21.454;2023-04-05T05:14:52;98095.53;;;4.33;70.37
62789;BME280;66401;42.016;21.454;2023-04-05T05:17:18;98090.53;;;4.31;70.94
62789;BME280;66401;42.016;21.454;2023-04-05T05:19:44;98093.84;;;4.66;67.70
62789;BME280;66401;42.016;21.454;2023-04-05T05:22:10;98096.44;;;4.82;67.88
62789;BME280;66401;42.016;21.454;2023-04-05T05:24:35;98093.72;;;4.92;67.63
62789;BME280;66401;42.016;21.454;2023-04-05T05:27:01;98097.75;;;4.86;66.15
62789;BME280;66401;42.016;21.454;2023-04-05T05:29:27;98080.16;;;4.90;66.96
62789;BME280;66401;42.016;21.454;2023-04-05T05:31:52;98095.34;;;5.01;64.98
62789;BME280;66401;42.016;21.454;2023-04-05T05:34:18;98106.78;;;4.99;65.93
62789;BME280;66401;42.016;21.454;2023-04-05T05:36:43;98106.63;;;5.00;68.00
62789;BME280;66401;42.016;21.454;2023-04-05T05:39:09;98095.84;;;5.21;66.28
62789;BME280;66401;42.016;21.454;2023-04-05T05:41:35;98101.66;;;5.15;66.14
62789;BME280;66401;42.016;21.454;2023-04-05T05:44:00;98092.09;;;4.75;67.50
62789;BME280;66401;42.016;21.454;2023-04-05T05:46:26;98101.09;;;4.54;69.43
62789;BME280;66401;42.016;21.454;2023-04-05T05:48:51;98102.25;;;4.76;68.01
62789;BME280;66401;42.016;21.454;2023-04-05T05:51:17;98070.97;;;4.79;67.64
62789;BME280;66401;42.016;21.454;2023-04-05T05:53:43;98099.66;;;4.68;68.81
62789;BME280;66401;42.016;21.454;2023-04-05T05:56:09;98103.50;;;4.56;69.24
62789;BME280;66401;42.016;21.454;2023-04-05T05:58:35;98103.09;;;4.93;67.62
62789;BME280;66401;42.016;21.454;2023-04-05T06:01:01;98106.81;;;5.15;66.02
62789;BME280;66401;42.016;21.454;2023-04-05T06:03:28;98108.75;;;5.21;65.17
62789;BME280;66401;42.016;21.454;2023-04-05T06:05:55;98109.69;;;5.20;64.34
62789;BME280;66401;42.016;21.454;2023-04-05T06:08:24;98116.81;;;5.26;65.49
62789;BME280;66401;42.016;21.454;2023-04-05T06:10:51;98107.75;;;5.38;65.00
62789;BME280;66401;42.016;21.454;2023-04-05T06:13:16;98113.56;;;5.49;64.68
62789;BME280;66401;42.016;21.454;2023-04-05T06:15:42;98116.78;;;5.59;64.00
62789;BME280;66401;42.016;21.454;2023-04-05T06:18:08;98117.75;;;5.58;64.33
62789;BME280;66401;42.016;21.454;2023-04-05T06:20:34;98114.88;;;5.53;64.96
62789;BME280;66401;42.016;21.454;2023-04-05T06:23:05;98104.53;;;5.53;62.08
62789;BME280;66401;42.016;21.454;2023-04-05T06:25:30;98121.00;;;5.60;63.12
62789;BME280;66401;42.016;21.454;2023-04-05T06:27:56;98128.75;;;5.52;62.62
62789;BME280;66401;42.016;21.454;2023-04-05T06:30:21;98118.38;;;5.68;62.04
62789;BME280;66401;42.016;21.454;2023-04-05T06:32:47;98129.22;;;5.71;61.54
62789;BME280;66401;42.016;21.454;2023-04-05T06:35:21;98123.72;;;5.74;62.99
62789;BME280;66401;42.016;21.454;2023-04-05T06:37:46;98128.53;;;6.02;62.67
62789;BME280;66401;42.016;21.454;2023-04-05T06:40:13;98117.84;;;6.13;61.97
62789;BME280;66401;42.016;21.454;2023-04-05T06:42:39;98138.97;;;6.25;59.27
62789;BME280;66401;42.016;21.454;2023-04-05T06:45:05;98138.56;;;5.97;59.32
62789;BME280;66401;42.016;21.454;2023-04-05T06:47:34;98140.66;;;5.69;61.29
62789;BME280;66401;42.016;21.454;2023-04-05T06:50:00;98137.44;;;5.99;61.83
62789;BME280;66401;42.016;21.454;2023-04-05T06:52:26;98151.66;;;5.79;63.13
62789;BME280;66401;42.016;21.454;2023-04-05T06:54:52;98145.03;;;6.01;62.50
62789;BME280;66401;42.016;21.454;2023-04-05T06:57:18;98155.97;;;6.19;60.35
62789;BME280;66401;42.016;21.454;2023-04-05T06:59:43;98149.31;;;6.17;59.15
62789;BME280;66401;42.016;21.454;2023-04-05T07:02:08;98157.22;;;6.31;59.41
62789;BME280;66401;42.016;21.454;2023-04-05T07:04:34;98145.28;;;6.22;59.66
62789;BME280;66401;42.016;21.454;2023-04-05T07:07:04;98152.53;;;6.27;59.94
62789;BME280;66401;42.016;21.454;2023-04-05T07:09:33;98126.16;;;5.27;62.57
62789;BME280;66401;42.016;21.454;2023-04-05T07:12:01;98158.44;;;5.80;62.79
62789;BME280;66401;42.016;21.454;2023-04-05T07:14:32;98161.78;;;6.13;61.14
62789;BME280;66401;42.016;21.454;2023-04-05T07:16:58;98152.28;;;6.06;59.24
62789;BME280;66401;42.016;21.454;2023-04-05T07:19:23;98166.50;;;6.01;60.08
62789;BME280;66401;42.016;21.454;2023-04-05T07:21:49;98172.56;;;6.25;60.24
62789;BME280;66401;42.016;21.454;2023-04-05T07:24:15;98164.81;;;6.33;59.17
62789;BME280;66401;42.016;21.454;2023-04-05T07:26:40;98166.69;;;6.47;57.04
62789;BME280;66401;42.016;21.454;2023-04-05T07:29:06;98165.97;;;6.62;56.95
62789;BME280;66401;42.016;21.454;2023-04-05T07:31:33;98174.19;;;6.26;58.32
62789;BME280;66401;42.016;21.454;2023-04-05T07:33:59;98171.19;;;6.53;58.52
62789;BME280;66401;42.016;21.454;2023-04-05T07:36:26;98162.16;;;6.80;58.37
62789;BME280;66401;42.016;21.454;2023-04-05T07:38:53;98164.34;;;6.69;60.66
62789;BME280;66401;42.016;21.454;2023-04-05T07:41:19;98170.25;;;6.85;59.19
62789;BME280;66401;42.016;21.454;2023-04-05T07:43:45;98177.50;;;7.13;57.15
62789;BME280;66401;42.016;21.454;2023-04-05T07:46:10;98176.53;;;7.37;56.29
62789;BME280;66401;42.016;21.454;2023-04-05T07:48:36;98176.16;;;7.25;53.69
62789;BME280;66401;42.016;21.454;2023-04-05T07:51:06;98173.34;;;6.42;53.60
62789;BME280;66401;42.016;21.454;2023-04-05T07:53:32;98182.13;;;6.16;54.84
62789;BME280;66401;42.016;21.454;2023-04-05T07:56:02;98170.25;;;6.46;55.53
62789;BME280;66401;42.016;21.454;2023-04-05T07:58:28;98179.56;;;6.95;57.93
62789;BME280;66401;42.016;21.454;2023-04-05T08:00:59;98181.56;;;7.15;56.82
62789;BME280;66401;42.016;21.454;2023-04-05T08:03:24;98177.84;;;7.33;56.14
62789;BME280;66401;42.016;21.454;2023-04-05T08:05:50;98180.28;;;7.72;54.46
62789;BME280;66401;42.016;21.454;2023-04-05T08:08:15;98184.72;;;7.26;56.46
62789;BME280;66401;42.016;21.454;2023-04-05T08:10:41;98181.59;;;7.07;55.94
62789;BME280;66401;42.016;21.454;2023-04-05T08:13:06;98184.44;;;7.43;55.26
62789;BME280;66401;42.016;21.454;2023-04-05T08:15:33;98180.53;;;7.25;56.45
62789;BME280;66401;42.016;21.454;2023-04-05T08:17:58;98183.69;;;6.81;55.48
62789;BME280;66401;42.016;21.454;2023-04-05T08:20:24;98189.25;;;7.24;57.14
62789;BME280;66401;42.016;21.454;2023-04-05T08:22:49;98176.56;;;7.52;54.59
62789;BME280;66401;42.016;21.454;2023-04-05T08:25:15;98186.06;;;7.82;51.63
62789;BME280;66401;42.016;21.454;2023-04-05T08:27:40;98163.72;;;7.43;50.88
62789;BME280;66401;42.016;21.454;2023-04-05T08:30:07;98185.81;;;8.07;52.16
62789;BME280;66401;42.016;21.454;2023-04-05T08:32:36;98184.47;;;7.96;51.84
62789;BME280;66401;42.016;21.454;2023-04-05T08:35:01;98185.28;;;7.96;50.16
62789;BME280;66401;42.016;21.454;2023-04-05T08:37:27;98186.34;;;8.40;50.24
62789;BME280;66401;42.016;21.454;2023-04-05T08:39:52;98179.97;;;8.42;47.11
62789;BME280;66401;42.016;21.454;2023-04-05T08:42:25;98165.59;;;8.17;48.69
62789;BME280;66401;42.016;21.454;2023-04-05T08:44:53;98177.75;;;7.49;49.84
62789;BME280;66401;42.016;21.454;2023-04-05T08:47:22;98185.34;;;7.51;49.08
62789;BME280;66401;42.016;21.454;2023-04-05T08:49:48;98174.88;;;7.44;49.70
62789;BME280;66401;42.016;21.454;2023-04-05T08:52:14;98170.25;;;7.92;48.23
62789;BME280;66401;42.016;21.454;2023-04-05T08:54:39;98179.13;;;8.12;50.75
62789;BME280;66401;42.016;21.454;2023-04-05T08:57:06;98163.97;;;8.75;48.58
62789;BME280;66401;42.016;21.454;2023-04-05T08:59:33;98175.56;;;8.43;48.02
62789;BME280;66401;42.016;21.454;2023-04-05T09:02:03;98176.91;;;8.39;47.74
62789;BME280;66401;42.016;21.454;2023-04-05T09:04:34;98179.75;;;8.73;47.71
62789;BME280;66401;42.016;21.454;2023-04-05T09:07:05;98178.75;;;8.74;45.98
62789;BME280;66401;42.016;21.454;2023-04-05T09:09:32;98174.38;;;9.11;46.38
62789;BME280;66401;42.016;21.454;2023-04-05T09:12:02;98179.47;;;9.40;45.09
62789;BME280;66401;42.016;21.454;2023-04-05T09:14:29;98173.28;;;9.20;44.96
62789;BME280;66401;42.016;21.454;2023-04-05T09:16:56;98168.19;;;9.33;43.98
62789;BME280;66401;42.016;21.454;2023-04-05T09:19:22;98174.50;;;9.24;44.59
62789;BME280;66401;42.016;21.454;2023-04-05T09:21:59;98169.53;;;9.51;44.71
62789;BME280;66401;42.016;21.454;2023-04-05T09:24:37;98172.41;;;9.56;44.95
62789;BME280;66401;42.016;21.454;2023-04-05T09:27:10;98174.56;;;9.31;45.87
62789;BME280;66401;42.016;21.454;2023-04-05T09:29:37;98173.97;;;8.42;48.35
62789;BME280;66401;42.016;21.454;2023-04-05T09:32:04;98169.09;;;8.68;46.27
62789;BME280;66401;42.016;21.454;2023-04-05T09:34:30;98175.03;;;8.62;46.03
62789;BME280;66401;42.016;21.454;2023-04-05T09:36:57;98172.34;;;8.70;46.95
62789;BME280;66401;42.016;21.454;2023-04-05T09:39:31;98167.72;;;8.87;46.76
62789;BME280;66401;42.016;21.454;2023-04-05T09:42:10;98159.44;;;8.03;48.40
62789;BME280;66401;42.016;21.454;2023-04-05T09:44:57;98153.56;;;7.71;49.28
62789;BME280;66401;42.016;21.454;2023-04-05T09:47:30;98167.28;;;8.10;50.45
62789;BME280;66401;42.016;21.454;2023-04-05T09:50:17;98165.34;;;8.26;48.70
62789;BME280;66401;42.016;21.454;2023-04-05T09:52:43;98152.28;;;8.05;47.35
62789;BME280;66401;42.016;21.454;2023-04-05T09:55:10;98164.09;;;7.93;48.38
62789;BME280;66401;42.016;21.454;2023-04-05T09:57:38;98164.69;;;6.97;50.43
62789;BME280;66401;42.016;21.454;2023-04-05T10:00:05;98161.84;;;7.52;51.31
62789;BME280;66401;42.016;21.454;2023-04-05T10:02:35;98161.00;;;7.37;48.67
62789;BME280;66401;42.016;21.454;2023-04-05T10:05:08;98162.78;;;7.36;49.40
62789;BME280;66401;42.016;21.454;2023-04-05T10:07:40;98158.53;;;7.21;49.88
62789;BME280;66401;42.016;21.454;2023-04-05T10:10:07;98162.09;;;7.20;50.47
62789;BME280;66401;42.016;21.454;2023-04-05T10:12:37;98164.91;;;7.70;49.15
62789;BME280;66401;42.016;21.454;2023-04-05T10:15:03;98124.72;;;7.74;46.99
62789;BME280;66401;42.016;21.454;2023-04-05T10:17:45;98163.72;;;8.25;47.83
62789;BME280;66401;42.016;21.454;2023-04-05T10:20:22;98159.19;;;7.60;46.61
62789;BME280;66401;42.016;21.454;2023-04-05T10:31:44;98151.44;;;7.75;49.51
62789;BME280;66401;42.016;21.454;2023-04-05T10:33:44;98140.66;;;8.01;50.22
62789;BME280;66401;42.016;21.454;2023-04-05T10:39:04;98147.03;;;7.61;48.77
62789;BME280;66401;42.016;21.454;2023-04-05T10:41:39;98152.53;;;6.97;48.50
62789;BME280;66401;42.016;21.454;2023-04-05T10:44:09;98149.63;;;6.92;47.29
62789;BME280;66401;42.016;21.454;2023-04-05T10:46:35;98135.78;;;7.68;48.11
62789;BME280;66401;42.016;21.454;2023-04-05T10:51:30;98154.00;;;7.60;49.46
62789;BME280;66401;42.016;21.454;2023-04-05T10:53:57;98116.16;;;7.13;49.71
62789;BME280;66401;42.016;21.454;2023-04-05T10:56:24;98152.19;;;7.23;50.08
62789;BME280;66401;42.016;21.454;2023-04-05T10:58:51;98149.25;;;7.03;50.52
62789;BME280;66401;42.016;21.454;2023-04-05T11:01:18;98153.69;;;6.55;52.07
62789;BME280;66401;42.016;21.454;2023-04-05T11:06:33;98129.19;;;7.05;50.06
62789;BME280;66401;42.016;21.454;2023-04-05T11:09:18;98130.72;;;7.52;48.70
62789;BME280;66401;42.016;21.454;2023-04-05T11:11:48;98139.97;;;6.86;49.25
62789;BME280;66401;42.016;21.454;2023-04-05T11:14:22;98130.03;;;7.58;47.97
62789;BME280;66401;42.016;21.454;2023-04-05T11:16:54;98130.47;;;8.14;47.56
62789;BME280;66401;42.016;21.454;2023-04-05T11:22:08;98119.69;;;7.58;47.33
62789;BME280;66401;42.016;21.454;2023-04-05T11:24:51;98119.00;;;7.94;46.91
62789;BME280;66401;42.016;21.454;2023-04-05T11:27:25;98126.38;;;8.35;46.63
62789;BME280;66401;42.016;21.454;2023-04-05T11:29:52;98125.19;;;8.08;48.55
62789;BME280;66401;42.016;21.454;2023-04-05T11:32:19;98134.78;;;7.69;47.83
62789;BME280;66401;42.016;21.454;2023-04-05T11:34:59;98127.25;;;7.83;48.39
62789;BME280;66401;42.016;21.454;2023-04-05T11:40:34;98129.66;;;8.14;47.77
62789;BME280;66401;42.016;21.454;2023-04-05T11:43:04;98131.09;;;8.31;47.60
62789;BME280;66401;42.016;21.454;2023-04-05T11:45:32;98131.53;;;8.05;47.65
62789;BME280;66401;42.016;21.454;2023-04-05T11:48:24;98129.31;;;8.82;47.32
62789;BME280;66401;42.016;21.454;2023-04-05T11:50:50;98118.44;;;9.15;45.90
62789;BME280;66401;42.016;21.454;2023-04-05T11:53:18;98130.47;;;8.44;44.25
62789;BME280;66401;42.016;21.454;2023-04-05T11:55:45;98115.28;;;8.41;44.78
62789;BME280;66401;42.016;21.454;2023-04-05T11:58:13;98129.09;;;8.99;44.81
62789;BME280;66401;42.016;21.454;2023-04-05T12:00:43;98120.97;;;9.30;44.95
62789;BME280;66401;42.016;21.454;2023-04-05T12:03:13;98129.47;;;9.94;45.59
62789;BME280;66401;42.016;21.454;2023-04-05T12:05:46;98126.41;;;9.56;42.92
62789;BME280;66401;42.016;21.454;2023-04-05T12:08:11;98116.91;;;10.39;43.38
62789;BME280;66401;42.016;21.454;2023-04-05T12:10:37;98119.84;;;10.77;40.65
62789;BME280;66401;42.016;21.454;2023-04-05T12:13:02;98114.25;;;10.80;39.57
62789;BME280;66401;42.016;21.454;2023-04-05T12:15:28;98114.28;;;9.70;41.03
62789;BME280;66401;42.016;21.454;2023-04-05T12:17:53;98121.50;;;9.68;41.08
62789;BME280;66401;42.016;21.454;2023-04-05T12:20:23;98115.38;;;9.82;41.10
62789;BME280;66401;42.016;21.454;2023-04-05T12:22:54;98109.41;;;9.88;40.84
62789;BME280;66401;42.016;21.454;2023-04-05T12:25:21;98102.97;;;10.53;41.43
62789;BME280;66401;42.016;21.454;2023-04-05T12:27:47;98105.50;;;11.14;41.40
62789;BME280;66401;42.016;21.454;2023-04-05T12:30:21;98090.84;;;11.27;38.58
62789;BME280;66401;42.016;21.454;2023-04-05T12:32:49;98101.09;;;11.22;39.42
62789;BME280;66401;42.016;21.454;2023-04-05T12:35:20;98108.31;;;11.59;39.91
62789;BME280;66401;42.016;21.454;2023-04-05T12:37:46;98072.22;;;11.03;37.95
62789;BME280;66401;42.016;21.454;2023-04-05T12:40:19;98109.09;;;11.13;40.11
62789;BME280;66401;42.016;21.454;2023-04-05T12:42:45;98112.69;;;10.99;41.05
62789;BME280;66401;42.016;21.454;2023-04-05T12:45:11;98110.31;;;11.04;40.26
62789;BME280;66401;42.016;21.454;2023-04-05T12:47:47;98108.06;;;10.88;40.37
62789;BME280;66401;42.016;21.454;2023-04-05T12:50:14;98108.19;;;10.67;40.75
62789;BME280;66401;42.016;21.454;2023-04-05T12:53:00;98113.16;;;10.48;40.66
62789;BME280;66401;42.016;21.454;2023-04-05T12:55:27;98103.25;;;10.24;41.41
62789;BME280;66401;42.016;21.454;2023-04-05T12:57:55;98111.88;;;10.31;40.13
62789;BME280;66401;42.016;21.454;2023-04-05T13:00:24;98108.06;;;10.27;41.57
62789;BME280;66401;42.016;21.454;2023-04-05T13:02:51;98121.34;;;9.76;41.37
62789;BME280;66401;42.016;21.454;2023-04-05T13:05:22;98106.03;;;9.60;41.99
62789;BME280;66401;42.016;21.454;2023-04-05T13:07:48;98108.38;;;9.55;42.27
62789;BME280;66401;42.016;21.454;2023-04-05T13:10:15;98108.22;;;9.63;41.76
62789;BME280;66401;42.016;21.454;2023-04-05T13:12:41;98104.88;;;9.69;41.75
62789;BME280;66401;42.016;21.454;2023-04-05T13:15:07;98104.44;;;9.16;42.92
62789;BME280;66401;42.016;21.454;2023-04-05T13:17:33;98102.00;;;9.57;42.15
62789;BME280;66401;42.016;21.454;2023-04-05T13:19:58;98100.88;;;9.66;41.78
62789;BME280;66401;42.016;21.454;2023-04-05T13:22:24;98106.50;;;9.70;42.26
62789;BME280;66401;42.016;21.454;2023-04-05T13:24:50;98103.63;;;9.65;41.42
62789;BME280;66401;42.016;21.454;2023-04-05T13:27:18;98102.47;;;9.67;42.00
62789;BME280;66401;42.016;21.454;2023-04-05T13:29:44;98107.56;;;9.05;43.12
62789;BME280;66401;42.016;21.454;2023-04-05T13:32:09;98109.28;;;9.19;43.78
62789;BME280;66401;42.016;21.454;2023-04-05T13:34:35;98110.78;;;9.28;43.51